Time;durP1;ratioP1;P1;durP2;ratioP2;P2;SDS_P1;SDS_P2;PMS_P1;PMS_P2;Temp;Humidity;BMP_temperature;BMP_pressure;BME280_temperature;BME280_humidity;BME280_pressure;Samples;Min_cycle;Max_cycle;Signal;HPM_P1;HPM_P2
2020/12/09 00:01:49;;;;;;;48.22;27.45;;;2.40;99.90;;;;;;5069156;28;20683;-75
2020/12/09 00:04:34;;;;;;;44.83;28.15;;;2.40;99.90;;;;;;5060552;28;20200;-75
2020/12/09 00:07:19;;;;;;;50.70;30.48;;;2.50;99.90;;;;;;5060248;28;20236;-75
2020/12/09 00:10:06;;;;;;;45.30;28.50;;;2.30;99.90;;;;;;5058651;28;20342;-76
2020/12/09 00:12:52;;;;;;;56.13;29.15;;;2.20;99.90;;;;;;5065854;28;20270;-75
2020/12/09 00:15:37;;;;;;;50.95;30.50;;;2.20;99.90;;;;;;5055178;28;20594;-76
2020/12/09 00:18:22;;;;;;;42.58;28.25;;;2.20;99.90;;;;;;5066210;28;20216;-75
2020/12/09 00:21:07;;;;;;;46.67;29.25;;;2.30;99.90;;;;;;5067979;28;20705;-75
2020/12/09 00:23:53;;;;;;;48.85;27.05;;;2.40;99.90;;;;;;5064485;28;20289;-76
2020/12/09 00:26:39;;;;;;;41.28;27.98;;;2.50;99.90;;;;;;5068887;28;20208;-76
2020/12/09 00:29:25;;;;;;;51.60;28.65;;;2.50;99.90;;;;;;5060088;28;20290;-76
2020/12/09 00:32:10;;;;;;;51.67;29.20;;;2.40;99.90;;;;;;5064762;28;20266;-76
2020/12/09 00:34:55;;;;;;;48.72;30.10;;;2.40;99.90;;;;;;5071501;28;20720;-76
2020/12/09 00:37:40;;;;;;;42.78;29.38;;;2.40;99.90;;;;;;5069599;28;20224;-76
2020/12/09 00:40:25;;;;;;;46.92;29.08;;;2.30;99.90;;;;;;5068127;28;20330;-76
2020/12/09 00:43:11;;;;;;;43.30;29.35;;;2.20;99.90;;;;;;5056973;28;20218;-76
2020/12/09 00:45:56;;;;;;;50.78;31.15;;;2.00;99.90;;;;;;5073378;28;20295;-76
2020/12/09 00:48:41;;;;;;;53.03;32.53;;;1.90;99.90;;;;;;5067673;28;20223;-76
2020/12/09 00:51:26;;;;;;;54.40;32.95;;;1.80;99.90;;;;;;5065232;28;20192;-76
2020/12/09 00:54:12;;;;;;;46.65;28.67;;;1.80;99.90;;;;;;5063566;28;20270;-76
2020/12/09 00:56:57;;;;;;;47.85;30.25;;;1.80;99.90;;;;;;5071287;28;20244;-76
2020/12/09 00:59:43;;;;;;;50.95;33.05;;;1.80;99.90;;;;;;5066322;28;20560;-76
2020/12/09 01:02:28;;;;;;;49.78;29.77;;;1.90;99.90;;;;;;5070743;28;20251;-76
2020/12/09 01:05:14;;;;;;;48.95;30.17;;;2.10;99.90;;;;;;5070130;28;20192;-76
2020/12/09 01:07:59;;;;;;;47.10;29.05;;;2.30;99.90;;;;;;5068515;28;20239;-76
2020/12/09 01:10:44;;;;;;;45.53;28.00;;;2.40;99.90;;;;;;5070911;28;20671;-76
2020/12/09 01:13:29;;;;;;;45.10;29.38;;;2.40;99.90;;;;;;5065550;28;20683;-76
2020/12/09 01:16:15;;;;;;;51.53;27.05;;;2.30;99.90;;;;;;5064779;28;20196;-76
2020/12/09 01:19:01;;;;;;;45.55;29.25;;;2.30;99.90;;;;;;5064934;28;20611;-75
2020/12/09 01:21:46;;;;;;;48.22;29.88;;;2.50;99.90;;;;;;5068467;28;20270;-76
2020/12/09 01:24:31;;;;;;;38.58;25.30;;;2.60;99.90;;;;;;5071413;28;20274;-76
2020/12/09 01:27:23;;;;;;;41.85;25.50;;;2.60;99.90;;;;;;5060958;28;20240;-76
2020/12/09 01:30:08;;;;;;;48.95;29.55;;;2.60;99.90;;;;;;5064753;28;20200;-76
2020/12/09 01:32:54;;;;;;;43.38;27.70;;;2.60;99.90;;;;;;5069487;28;20219;-76
2020/12/09 01:35:40;;;;;;;46.53;28.30;;;2.70;99.90;;;;;;5067954;28;20267;-76
2020/12/09 01:38:25;;;;;;;42.00;27.83;;;2.80;99.90;;;;;;5070049;28;20223;-76
2020/12/09 01:41:10;;;;;;;43.22;28.23;;;2.70;99.90;;;;;;5062993;28;20204;-76
2020/12/09 01:43:55;;;;;;;44.53;29.23;;;2.70;99.90;;;;;;5061751;28;20754;-76
2020/12/09 01:46:41;;;;;;;45.33;31.88;;;2.70;99.90;;;;;;5067996;28;20201;-76
2020/12/09 01:49:27;;;;;;;44.25;29.38;;;2.70;99.90;;;;;;5073420;28;20696;-76
2020/12/09 01:52:12;;;;;;;46.38;29.35;;;2.70;99.90;;;;;;5070455;28;20683;-76
2020/12/09 01:54:58;;;;;;;43.00;28.67;;;2.80;99.90;;;;;;5071227;28;20231;-75
2020/12/09 01:57:43;;;;;;;46.03;28.92;;;2.90;99.90;;;;;;5059193;28;20319;-76
2020/12/09 02:00:28;;;;;;;40.92;27.52;;;2.90;99.90;;;;;;5065709;28;20208;-76
2020/12/09 02:03:13;;;;;;;44.10;28.40;;;2.90;99.90;;;;;;5069697;28;20683;-76
2020/12/09 02:05:59;;;;;;;46.30;30.10;;;2.80;99.90;;;;;;5059002;28;20237;-76
2020/12/09 02:08:44;;;;;;;45.58;29.25;;;2.80;99.90;;;;;;5070912;28;20697;-76
2020/12/09 02:11:29;;;;;;;42.33;28.27;;;2.80;99.90;;;;;;5062698;28;20208;-75
2020/12/09 02:14:14;;;;;;;44.50;29.60;;;2.90;99.90;;;;;;5058102;28;20310;-75
2020/12/09 02:17:00;;;;;;;45.20;29.30;;;2.80;99.90;;;;;;5065463;28;20355;-75
2020/12/09 02:19:45;;;;;;;44.72;30.73;;;2.70;99.90;;;;;;5068705;28;20607;-75
2020/12/09 02:22:31;;;;;;;57.13;30.10;;;2.60;99.90;;;;;;5066901;28;20207;-75
2020/12/09 02:25:16;;;;;;;46.03;28.90;;;2.50;99.90;;;;;;5054238;28;20668;-76
2020/12/09 02:28:01;;;;;;;52.60;31.20;;;2.30;99.90;;;;;;5065006;28;20776;-75
2020/12/09 02:30:46;;;;;;;47.60;29.80;;;2.20;99.90;;;;;;5063348;28;20207;-75
2020/12/09 02:33:31;;;;;;;48.53;31.92;;;2.10;99.90;;;;;;5071246;28;20322;-75
2020/12/09 02:36:16;;;;;;;47.30;31.73;;;2.20;99.90;;;;;;5068985;28;20204;-75
2020/12/09 02:39:04;;;;;;;51.72;30.50;;;2.30;99.90;;;;;;5067999;28;20219;-75
2020/12/09 02:41:49;;;;;;;48.97;30.23;;;2.40;99.90;;;;;;5062627;28;20212;-75
2020/12/09 02:44:34;;;;;;;48.20;29.83;;;2.50;99.90;;;;;;5066415;28;20687;-75
2020/12/09 02:47:19;;;;;;;46.13;30.23;;;2.60;99.90;;;;;;5066840;28;20235;-75
2020/12/09 02:50:04;;;;;;;47.08;31.23;;;2.40;99.90;;;;;;5063212;28;20200;-75
2020/12/09 02:52:49;;;;;;;43.17;28.98;;;2.50;99.90;;;;;;5067309;28;20208;-75
2020/12/09 02:55:35;;;;;;;49.03;30.65;;;2.50;99.90;;;;;;5066629;28;20343;-75
2020/12/09 02:58:21;;;;;;;51.75;29.58;;;2.40;99.90;;;;;;5055476;28;20217;-75
2020/12/09 03:01:06;;;;;;;43.50;29.45;;;2.30;99.90;;;;;;5066719;28;20268;-75
2020/12/09 03:03:51;;;;;;;44.90;27.88;;;2.30;99.90;;;;;;5067318;28;20200;-75
2020/12/09 03:06:36;;;;;;;46.90;29.60;;;2.20;99.90;;;;;;5066354;28;20299;-75
2020/12/09 03:09:21;;;;;;;46.05;28.80;;;2.20;99.90;;;;;;5054856;28;20243;-75
2020/12/09 03:12:06;;;;;;;44.90;30.95;;;2.20;99.90;;;;;;5060639;28;20234;-75
2020/12/09 03:14:52;;;;;;;50.65;29.20;;;2.20;99.90;;;;;;5062115;28;20223;-75
2020/12/09 03:17:36;;;;;;;47.08;28.77;;;2.20;99.90;;;;;;5069143;28;20232;-75
2020/12/09 03:20:22;;;;;;;53.83;30.88;;;2.10;99.90;;;;;;5065840;28;20728;-75
2020/12/09 03:23:07;;;;;;;45.85;29.38;;;2.10;99.90;;;;;;5067002;28;20250;-75
2020/12/09 03:25:52;;;;;;;44.10;28.48;;;2.30;99.90;;;;;;5067714;28;20238;-75
2020/12/09 03:28:38;;;;;;;46.05;30.58;;;2.40;99.90;;;;;;5065214;28;20232;-75
2020/12/09 03:31:23;;;;;;;41.72;27.35;;;2.60;99.90;;;;;;5065547;28;20207;-75
2020/12/09 03:34:08;;;;;;;42.78;27.63;;;2.70;99.90;;;;;;5058149;28;20642;-75
2020/12/09 03:36:53;;;;;;;38.78;26.52;;;2.60;99.90;;;;;;5064842;28;20328;-75
2020/12/09 03:39:38;;;;;;;47.10;29.17;;;2.70;99.90;;;;;;5074032;28;20208;-75
2020/12/09 03:42:23;;;;;;;43.40;27.17;;;2.80;99.90;;;;;;5068042;28;20229;-75
2020/12/09 03:45:09;;;;;;;46.65;28.45;;;2.80;99.90;;;;;;5065033;28;20282;-75
2020/12/09 03:47:55;;;;;;;40.40;27.13;;;2.80;99.90;;;;;;5068896;28;20809;-76
2020/12/09 03:50:40;;;;;;;49.65;27.10;;;2.70;99.90;;;;;;5075600;28;20223;-75
2020/12/09 03:53:25;;;;;;;38.30;27.67;;;2.60;99.90;;;;;;5071309;28;20203;-75
2020/12/09 03:56:10;;;;;;;42.90;28.02;;;2.70;99.90;;;;;;5054586;28;20316;-75
2020/12/09 03:58:55;;;;;;;45.03;28.58;;;2.80;99.90;;;;;;5070384;28;20228;-75
2020/12/09 04:01:41;;;;;;;39.63;27.25;;;2.90;99.90;;;;;;5062411;28;20574;-75
2020/12/09 04:04:26;;;;;;;44.72;27.35;;;2.90;99.90;;;;;;5067390;28;20195;-75
2020/12/09 04:07:11;;;;;;;47.03;30.48;;;2.90;99.90;;;;;;5061650;28;20240;-75
2020/12/09 04:09:56;;;;;;;45.25;28.52;;;2.80;99.90;;;;;;5073750;28;20237;-75
2020/12/09 04:12:41;;;;;;;49.33;29.83;;;2.70;99.90;;;;;;5067135;28;20695;-75
2020/12/09 04:15:27;;;;;;;46.60;27.48;;;2.80;99.90;;;;;;5070915;28;20255;-75
2020/12/09 04:18:14;;;;;;;42.75;27.92;;;2.90;99.90;;;;;;5062682;28;20224;-75
2020/12/09 04:20:59;;;;;;;45.55;28.20;;;3.00;99.90;;;;;;5073524;28;20208;-75
2020/12/09 04:23:44;;;;;;;49.05;30.67;;;3.00;99.90;;;;;;5062786;28;20200;-75
2020/12/09 04:26:30;;;;;;;51.42;30.25;;;2.80;99.90;;;;;;5069586;28;20196;-75
2020/12/09 04:29:15;;;;;;;51.80;31.20;;;2.60;99.90;;;;;;5070442;28;20199;-75
2020/12/09 04:32:00;;;;;;;44.25;30.73;;;2.60;99.90;;;;;;5070726;28;20638;-75
2020/12/09 04:34:47;;;;;;;46.60;29.58;;;2.70;99.90;;;;;;5070254;28;20286;-75
2020/12/09 04:37:32;;;;;;;49.83;31.48;;;2.60;99.90;;;;;;5062195;28;20221;-75
2020/12/09 04:40:18;;;;;;;44.47;28.73;;;2.50;99.90;;;;;;5063985;28;20204;-75
2020/12/09 04:43:03;;;;;;;40.90;27.65;;;2.40;99.90;;;;;;5060444;28;20207;-75
2020/12/09 04:45:49;;;;;;;49.17;31.60;;;2.20;99.90;;;;;;5065259;28;20200;-75
2020/12/09 04:48:39;;;;;;;50.30;31.98;;;2.10;99.90;;;;;;5066722;28;20224;-75
2020/12/09 04:51:58;;;;;;;49.42;29.65;;;2.20;99.90;;;;;;5070046;28;20322;-75
2020/12/09 04:54:44;;;;;;;47.75;27.75;;;2.40;99.90;;;;;;5067823;28;20358;-75
2020/12/09 04:58:05;;;;;;;40.17;28.05;;;2.60;99.90;;;;;;5065659;28;20286;-75
2020/12/09 05:01:02;;;;;;;44.55;25.63;;;2.70;99.90;;;;;;5070815;28;20625;-76
2020/12/09 05:03:50;;;;;;;38.15;26.95;;;2.70;99.90;;;;;;5066766;28;20263;-75
2020/12/09 05:06:37;;;;;;;43.53;27.50;;;2.70;99.90;;;;;;5070152;28;20563;-75
2020/12/09 05:09:28;;;;;;;43.10;28.83;;;2.60;99.90;;;;;;5063880;28;20203;-75
2020/12/09 05:12:15;;;;;;;42.67;28.00;;;2.70;99.90;;;;;;5050972;28;20201;-75
2020/12/09 05:15:03;;;;;;;40.85;26.25;;;2.80;99.90;;;;;;5070772;28;20220;-75
2020/12/09 05:18:00;;;;;;;43.05;27.80;;;2.90;99.90;;;;;;5067607;28;20227;-75
2020/12/09 05:20:46;;;;;;;41.80;28.52;;;2.90;99.90;;;;;;5066807;28;20910;-75
2020/12/09 05:23:34;;;;;;;41.05;26.25;;;2.90;99.90;;;;;;5067964;28;20211;-75
2020/12/09 05:26:25;;;;;;;42.40;27.23;;;2.90;99.90;;;;;;5065364;28;20200;-75
2020/12/09 05:29:13;;;;;;;42.33;27.25;;;2.90;99.90;;;;;;5064765;28;20199;-75
2020/12/09 05:32:00;;;;;;;40.15;25.83;;;2.90;99.90;;;;;;5067837;28;20208;-75
2020/12/09 05:34:45;;;;;;;46.05;26.42;;;2.80;99.90;;;;;;5067526;28;20873;-74
2020/12/09 05:37:30;;;;;;;41.75;26.70;;;2.60;99.90;;;;;;5067143;28;20278;-76
2020/12/09 05:40:29;;;;;;;38.65;27.05;;;2.40;99.90;;;;;;5065015;28;20204;-76
2020/12/09 05:43:16;;;;;;;42.70;27.75;;;2.40;99.90;;;;;;5056298;28;20196;-75
2020/12/09 05:46:09;;;;;;;40.75;27.23;;;2.30;99.90;;;;;;5068843;28;20196;-75
2020/12/09 05:48:54;;;;;;;47.97;28.15;;;2.30;99.90;;;;;;5064933;28;20229;-75
2020/12/09 05:51:39;;;;;;;40.05;25.42;;;2.40;99.90;;;;;;5067727;28;20207;-76
2020/12/09 05:54:28;;;;;;;42.35;26.77;;;2.40;99.90;;;;;;5069745;28;20255;-75
2020/12/09 05:57:15;;;;;;;51.47;29.85;;;2.30;99.90;;;;;;5051852;28;20232;-75
2020/12/09 06:00:00;;;;;;;45.30;28.20;;;2.30;99.90;;;;;;5061634;28;20259;-75
2020/12/09 06:02:45;;;;;;;39.28;26.30;;;2.20;99.90;;;;;;5067361;28;20208;-75
2020/12/09 06:05:30;;;;;;;43.80;28.73;;;2.20;99.90;;;;;;5065280;28;20216;-75
2020/12/09 06:08:47;;;;;;;48.90;27.77;;;2.10;99.90;;;;;;5058828;28;20223;-75
2020/12/09 06:11:34;;;;;;;40.55;28.48;;;2.20;99.90;;;;;;5060838;28;20577;-75
2020/12/09 06:14:20;;;;;;;41.33;26.40;;;2.40;99.90;;;;;;5067584;28;20269;-75
2020/12/09 06:17:05;;;;;;;42.13;27.92;;;2.50;99.90;;;;;;5059526;28;20219;-75
2020/12/09 06:19:51;;;;;;;40.63;25.35;;;2.30;99.90;;;;;;5070682;28;20204;-75
2020/12/09 06:22:36;;;;;;;41.60;28.42;;;2.30;99.90;;;;;;5061615;28;20231;-75
2020/12/09 06:25:21;;;;;;;43.05;28.15;;;2.20;99.90;;;;;;5062761;28;20223;-75
2020/12/09 06:28:11;;;;;;;66.75;36.20;;;2.20;99.90;;;;;;5063271;28;20322;-75
2020/12/09 06:30:59;;;;;;;128.80;61.97;;;2.30;99.90;;;;;;5067263;28;20204;-75
2020/12/09 06:33:47;;;;;;;67.18;40.60;;;2.30;99.90;;;;;;5066029;28;20216;-75
2020/12/09 06:36:32;;;;;;;48.95;31.00;;;2.30;99.90;;;;;;5069796;28;20200;-75
2020/12/09 06:39:18;;;;;;;42.05;29.65;;;2.40;99.90;;;;;;5056810;28;20220;-75
2020/12/09 06:42:08;;;;;;;42.53;26.60;;;2.40;99.90;;;;;;5056874;28;20232;-75
2020/12/09 06:44:53;;;;;;;43.83;27.73;;;2.30;99.90;;;;;;5066340;28;20212;-75
2020/12/09 06:47:38;;;;;;;40.53;26.10;;;2.30;99.90;;;;;;5067836;28;20278;-75
2020/12/09 06:50:29;;;;;;;40.60;26.55;;;2.30;99.90;;;;;;5065289;28;20204;-75
2020/12/09 06:53:15;;;;;;;36.30;25.48;;;2.30;99.90;;;;;;5060586;28;20225;-75
2020/12/09 06:56:17;;;;;;;42.13;28.48;;;2.50;99.90;;;;;;5067109;28;20219;-75
2020/12/09 06:59:23;;;;;;;44.28;26.90;;;2.60;99.90;;;;;;5066906;28;20817;-75
2020/12/09 07:02:09;;;;;;;41.17;26.90;;;2.70;99.90;;;;;;5064675;28;20231;-75
2020/12/09 07:05:10;;;;;;;39.92;28.10;;;2.90;99.90;;;;;;5069747;28;20200;-75
2020/12/09 07:08:01;;;;;;;49.20;29.83;;;2.90;99.90;;;;;;5057223;28;20229;-75
2020/12/09 07:10:46;;;;;;;47.47;30.98;;;3.00;99.90;;;;;;5064126;28;20270;-75
2020/12/09 07:13:31;;;;;;;42.67;28.77;;;2.90;99.90;;;;;;5062350;28;20255;-75
2020/12/09 07:16:16;;;;;;;45.45;30.52;;;2.80;99.90;;;;;;5063016;28;20301;-75
2020/12/09 07:19:01;;;;;;;42.55;30.80;;;2.60;99.90;;;;;;5066407;28;20311;-75
2020/12/09 07:21:47;;;;;;;50.15;29.27;;;2.70;99.90;;;;;;5067636;28;20335;-75
2020/12/09 07:24:33;;;;;;;45.28;28.40;;;2.80;99.90;;;;;;5066088;28;21082;-75
2020/12/09 07:27:19;;;;;;;40.67;28.42;;;2.80;99.90;;;;;;5064241;28;20234;-75
2020/12/09 07:30:07;;;;;;;47.63;29.20;;;3.00;99.90;;;;;;5062153;28;20215;-74
2020/12/09 07:32:54;;;;;;;43.70;27.95;;;2.90;99.90;;;;;;5063888;28;20203;-75
2020/12/09 07:35:39;;;;;;;45.55;28.85;;;2.80;99.90;;;;;;5064139;28;20666;-75
2020/12/09 07:38:25;;;;;;;46.22;29.27;;;2.90;99.90;;;;;;5068457;28;20228;-76
2020/12/09 07:41:10;;;;;;;46.50;27.17;;;2.80;99.90;;;;;;5065701;28;20273;-76
2020/12/09 07:43:56;;;;;;;41.50;25.13;;;2.80;99.90;;;;;;5067316;28;20351;-75
2020/12/09 07:46:41;;;;;;;42.58;28.25;;;2.80;99.90;;;;;;5059609;28;20200;-75
2020/12/09 07:49:26;;;;;;;44.28;28.50;;;2.70;99.90;;;;;;5063977;28;20208;-75
2020/12/09 07:52:23;;;;;;;41.70;28.42;;;2.70;99.90;;;;;;5061388;28;20262;-76
2020/12/09 07:55:13;;;;;;;41.35;29.27;;;2.80;99.90;;;;;;5064356;28;20262;-74
2020/12/09 07:58:07;;;;;;;46.00;29.17;;;2.90;99.90;;;;;;5068886;28;20216;-76
2020/12/09 08:00:52;;;;;;;46.10;28.08;;;2.80;99.90;;;;;;5058468;28;20213;-75
2020/12/09 08:03:40;;;;;;;43.97;28.88;;;2.90;99.90;;;;;;5063697;28;20227;-76
2020/12/09 08:06:25;;;;;;;43.08;29.42;;;3.00;99.90;;;;;;5063059;28;20197;-76
2020/12/09 08:09:14;;;;;;;43.22;27.30;;;3.10;99.90;;;;;;5062386;28;20201;-75
2020/12/09 08:12:01;;;;;;;39.88;28.33;;;3.20;99.90;;;;;;5068489;28;20567;-76
2020/12/09 08:14:46;;;;;;;39.85;25.15;;;3.20;99.90;;;;;;5065687;28;20675;-75
2020/12/09 08:17:32;;;;;;;38.72;25.70;;;3.10;99.90;;;;;;5064186;28;20294;-76
2020/12/09 08:20:17;;;;;;;46.65;27.83;;;2.90;99.90;;;;;;5061143;28;20334;-76
2020/12/09 08:23:03;;;;;;;43.47;27.20;;;2.90;99.90;;;;;;5073077;28;20262;-76
2020/12/09 08:25:50;;;;;;;48.75;29.40;;;2.90;99.90;;;;;;5067097;28;20676;-76
2020/12/09 08:28:37;;;;;;;41.30;26.85;;;3.10;99.90;;;;;;5066074;28;20550;-76
2020/12/09 08:31:22;;;;;;;42.22;27.67;;;3.20;99.90;;;;;;5057730;28;20679;-76
2020/12/09 08:34:13;;;;;;;43.30;27.90;;;3.30;99.90;;;;;;5060251;28;20215;-76
2020/12/09 08:36:58;;;;;;;40.88;27.38;;;3.30;99.90;;;;;;5073089;28;20630;-76
2020/12/09 08:39:43;;;;;;;38.60;26.35;;;3.50;99.90;;;;;;5065157;28;20203;-76
2020/12/09 08:42:28;;;;;;;51.22;31.73;;;3.60;99.90;;;;;;5070030;28;20800;-75
2020/12/09 08:45:14;;;;;;;55.22;34.22;;;3.60;99.90;;;;;;5056782;28;20196;-76
2020/12/09 08:47:59;;;;;;;47.33;31.67;;;3.70;99.90;;;;;;5071103;28;20626;-76
2020/12/09 08:50:44;;;;;;;53.88;33.17;;;3.70;99.90;;;;;;5072237;28;20259;-76
2020/12/09 08:53:30;;;;;;;47.78;30.63;;;3.50;99.90;;;;;;5068027;28;20199;-76
2020/12/09 08:56:15;;;;;;;44.85;29.00;;;3.50;99.90;;;;;;5067294;28;20239;-76
2020/12/09 08:59:01;;;;;;;47.88;31.70;;;3.60;99.90;;;;;;5066459;28;20613;-76
2020/12/09 09:01:47;;;;;;;50.75;33.40;;;3.60;99.90;;;;;;5065786;28;20723;-76
2020/12/09 09:04:35;;;;;;;42.63;26.75;;;3.70;99.90;;;;;;5066670;28;20327;-76
2020/12/09 09:07:20;;;;;;;40.13;26.55;;;3.80;99.90;;;;;;5059074;28;20236;-76
2020/12/09 09:10:05;;;;;;;53.20;30.45;;;3.90;99.90;;;;;;5057971;28;20274;-76
2020/12/09 09:12:50;;;;;;;52.08;32.05;;;4.00;99.90;;;;;;5060689;28;20682;-76
2020/12/09 09:15:36;;;;;;;49.35;31.20;;;4.00;99.90;;;;;;5065983;28;20706;-76
2020/12/09 09:18:21;;;;;;;50.80;31.02;;;4.10;99.90;;;;;;5057235;28;20652;-76
2020/12/09 09:21:07;;;;;;;49.20;29.27;;;4.20;99.90;;;;;;5075807;28;20200;-76
2020/12/09 09:23:52;;;;;;;46.60;31.15;;;4.20;99.90;;;;;;5063625;28;20255;-75
2020/12/09 09:26:37;;;;;;;46.85;30.23;;;4.30;99.90;;;;;;5070314;28;20274;-76
2020/12/09 09:29:22;;;;;;;53.55;32.63;;;4.20;99.90;;;;;;5062886;28;20571;-75
2020/12/09 09:32:07;;;;;;;47.20;29.90;;;4.20;99.90;;;;;;5053490;28;20326;-76
2020/12/09 09:34:53;;;;;;;54.75;33.45;;;4.20;99.90;;;;;;5062449;28;20247;-76
2020/12/09 09:37:41;;;;;;;44.78;29.50;;;4.20;99.90;;;;;;5069089;28;20335;-76
2020/12/09 09:40:26;;;;;;;49.60;31.40;;;4.20;99.90;;;;;;5070415;28;20204;-76
2020/12/09 09:43:12;;;;;;;49.45;30.60;;;4.20;99.90;;;;;;5064070;28;20523;-76
2020/12/09 09:45:59;;;;;;;53.47;31.67;;;4.30;99.90;;;;;;5067777;28;20195;-76
2020/12/09 09:48:44;;;;;;;48.20;31.23;;;4.10;99.90;;;;;;5058187;28;20223;-76
2020/12/09 09:51:30;;;;;;;47.15;30.40;;;4.20;99.90;;;;;;5059612;28;20663;-74
2020/12/09 09:54:15;;;;;;;46.67;31.10;;;4.20;99.90;;;;;;5065828;28;20315;-74
2020/12/09 09:57:00;;;;;;;46.13;30.85;;;4.20;99.90;;;;;;5052822;28;20192;-74
2020/12/09 09:59:45;;;;;;;44.65;28.50;;;4.20;99.90;;;;;;5056114;28;20220;-76
2020/12/09 10:02:31;;;;;;;48.55;30.10;;;4.30;99.90;;;;;;5060638;28;20204;-76
2020/12/09 10:05:16;;;;;;;48.80;26.17;;;4.40;99.90;;;;;;5062000;28;20204;-76
2020/12/09 10:08:02;;;;;;;41.80;27.88;;;4.40;99.90;;;;;;5069635;28;20232;-76
2020/12/09 10:10:47;;;;;;;44.55;30.80;;;4.40;99.90;;;;;;5069265;28;20282;-76
2020/12/09 10:13:33;;;;;;;47.70;30.50;;;4.40;99.90;;;;;;5068065;28;20940;-76
2020/12/09 10:16:23;;;;;;;51.85;28.67;;;4.40;99.90;;;;;;5061619;28;20212;-76
2020/12/09 10:19:08;;;;;;;50.00;32.33;;;4.40;99.90;;;;;;5053223;28;20224;-76
2020/12/09 10:21:53;;;;;;;52.58;30.55;;;4.30;99.90;;;;;;5067541;28;20294;-76
2020/12/09 10:24:40;;;;;;;53.10;31.25;;;4.10;99.90;;;;;;5070012;28;20698;-76
2020/12/09 10:27:25;;;;;;;44.20;29.60;;;4.10;99.90;;;;;;5065698;28;20277;-76
2020/12/09 10:30:10;;;;;;;49.80;29.08;;;4.00;99.90;;;;;;5068044;28;20200;-75
2020/12/09 10:32:55;;;;;;;51.72;32.28;;;4.00;99.90;;;;;;5065344;28;20675;-76
2020/12/09 10:35:44;;;;;;;46.92;30.75;;;4.00;99.90;;;;;;5051531;28;20303;-76
2020/12/09 10:38:29;;;;;;;51.08;28.60;;;4.00;99.90;;;;;;5068932;28;20590;-76
2020/12/09 10:41:15;;;;;;;44.65;29.45;;;4.20;99.90;;;;;;5060159;28;20200;-75
2020/12/09 10:44:00;;;;;;;50.20;32.33;;;4.00;99.90;;;;;;5067938;28;20286;-74
2020/12/09 10:46:46;;;;;;;46.22;31.25;;;4.00;99.90;;;;;;5054476;28;20197;-72
2020/12/09 10:49:32;;;;;;;44.30;30.00;;;4.00;99.90;;;;;;5056704;28;20518;-75
2020/12/09 10:52:17;;;;;;;44.00;28.00;;;4.00;99.90;;;;;;5059119;28;20212;-76
2020/12/09 10:55:03;;;;;;;48.67;28.75;;;4.10;99.90;;;;;;5047628;28;20240;-74
2020/12/09 10:57:49;;;;;;;45.15;28.33;;;4.20;99.90;;;;;;5047876;28;20224;-73
2020/12/09 11:00:34;;;;;;;49.63;31.55;;;4.20;99.90;;;;;;5066454;28;20580;-73
2020/12/09 11:03:19;;;;;;;47.45;28.85;;;4.40;99.90;;;;;;5053997;28;20203;-74
2020/12/09 11:06:04;;;;;;;48.83;30.50;;;4.40;99.90;;;;;;5052060;28;20205;-74
2020/12/09 11:08:49;;;;;;;50.83;30.55;;;4.30;99.90;;;;;;5047626;28;20604;-73
2020/12/09 11:11:35;;;;;;;49.20;29.95;;;4.20;99.90;;;;;;5058123;28;20212;-73
2020/12/09 11:14:21;;;;;;;54.35;28.65;;;4.20;99.90;;;;;;5054159;28;20331;-74
2020/12/09 11:17:06;;;;;;;54.90;31.35;;;4.20;99.90;;;;;;5063683;28;20282;-73
2020/12/09 11:19:51;;;;;;;47.72;29.35;;;4.30;99.90;;;;;;5048589;28;20279;-73
2020/12/09 11:22:36;;;;;;;42.85;27.25;;;4.20;99.90;;;;;;5058727;28;20274;-74
2020/12/09 11:25:23;;;;;;;48.58;27.42;;;4.30;99.90;;;;;;5063644;28;20255;-74
2020/12/09 11:28:08;;;;;;;47.42;29.80;;;4.30;99.90;;;;;;5052408;28;20228;-75
2020/12/09 11:30:54;;;;;;;49.30;26.33;;;4.20;99.90;;;;;;5063283;28;20204;-75
2020/12/09 11:33:39;;;;;;;47.88;28.20;;;4.30;99.90;;;;;;5058932;28;20598;-75
2020/12/09 11:36:26;;;;;;;46.97;28.60;;;4.30;99.90;;;;;;5064732;28;20223;-75
2020/12/09 11:39:11;;;;;;;49.67;28.52;;;4.40;99.90;;;;;;5050593;28;20213;-75
2020/12/09 11:41:58;;;;;;;46.40;27.10;;;4.50;99.90;;;;;;5056467;28;20259;-75
2020/12/09 11:44:44;;;;;;;55.85;27.90;;;4.50;99.90;;;;;;5067458;28;20203;-75
2020/12/09 11:47:29;;;;;;;44.47;26.95;;;4.60;99.90;;;;;;5065058;28;20583;-75
2020/12/09 11:50:15;;;;;;;41.28;27.02;;;4.70;99.90;;;;;;5061218;28;20687;-76
2020/12/09 11:53:01;;;;;;;39.42;25.15;;;4.90;99.90;;;;;;5064507;28;20772;-77
2020/12/09 11:55:46;;;;;;;45.05;26.17;;;4.80;99.90;;;;;;5062648;28;20220;-76
2020/12/09 11:58:31;;;;;;;39.78;25.02;;;4.80;99.90;;;;;;5066563;28;20263;-76
2020/12/09 12:01:16;;;;;;;44.85;28.10;;;4.70;99.90;;;;;;5066232;28;20197;-76
2020/12/09 12:04:02;;;;;;;42.40;25.33;;;4.80;99.90;;;;;;5069155;28;20291;-77
2020/12/09 12:06:47;;;;;;;45.33;26.38;;;4.80;99.90;;;;;;5065651;28;20204;-77
2020/12/09 12:09:32;;;;;;;44.45;26.90;;;4.80;99.90;;;;;;5070229;28;20215;-76
2020/12/09 12:12:17;;;;;;;42.17;25.13;;;4.80;99.90;;;;;;5056151;28;20258;-76
2020/12/09 12:15:02;;;;;;;41.40;24.55;;;4.70;99.90;;;;;;5066676;28;20254;-76
2020/12/09 12:17:47;;;;;;;45.85;26.45;;;4.70;99.90;;;;;;5067402;28;20228;-76
2020/12/09 12:20:33;;;;;;;42.72;27.42;;;4.60;99.90;;;;;;5070273;28;20204;-76
2020/12/09 12:23:18;;;;;;;41.70;24.80;;;4.60;99.90;;;;;;5066286;28;20208;-77
2020/12/09 12:26:03;;;;;;;42.95;26.42;;;4.60;99.90;;;;;;5062438;28;20297;-76
2020/12/09 12:28:50;;;;;;;43.72;26.95;;;4.70;99.90;;;;;;5068860;28;20809;-76
2020/12/09 12:31:35;;;;;;;44.60;26.25;;;4.70;99.90;;;;;;5059534;28;20246;-74
2020/12/09 12:34:20;;;;;;;42.92;26.17;;;4.70;99.90;;;;;;5066877;28;20203;-74
2020/12/09 12:37:06;;;;;;;102.82;49.38;;;4.80;99.90;;;;;;5058611;28;20342;-74
2020/12/09 12:39:51;;;;;;;49.15;28.60;;;4.80;99.90;;;;;;5063582;28;20350;-74
2020/12/09 12:42:36;;;;;;;46.90;24.25;;;4.70;99.90;;;;;;5057921;28;20212;-75
2020/12/09 12:45:22;;;;;;;146.55;75.47;;;4.70;99.90;;;;;;5055743;28;20326;-75
2020/12/09 12:48:07;;;;;;;52.97;29.73;;;4.60;99.90;;;;;;5061831;28;20434;-76
2020/12/09 12:50:52;;;;;;;39.95;25.02;;;4.50;99.90;;;;;;5059704;28;20569;-75
2020/12/09 12:53:40;;;;;;;41.63;23.70;;;4.50;99.90;;;;;;5061278;28;20205;-75
2020/12/09 12:56:25;;;;;;;41.80;24.10;;;4.60;99.90;;;;;;5049729;28;20228;-73
2020/12/09 12:59:10;;;;;;;41.50;23.88;;;4.60;99.90;;;;;;5047524;28;20205;-73
2020/12/09 13:01:59;;;;;;;50.60;25.60;;;4.60;99.90;;;;;;5058613;28;20370;-75
2020/12/09 13:04:44;;;;;;;40.80;23.55;;;4.70;99.90;;;;;;5070134;28;20204;-75
2020/12/09 13:07:30;;;;;;;40.28;22.65;;;4.70;99.90;;;;;;5056234;28;20310;-74
2020/12/09 13:10:16;;;;;;;38.38;23.30;;;4.70;99.90;;;;;;5058632;28;20286;-75
2020/12/09 13:13:01;;;;;;;42.25;26.05;;;4.70;99.90;;;;;;5050063;28;20213;-75
2020/12/09 13:15:46;;;;;;;44.75;25.65;;;4.80;99.90;;;;;;5061557;28;20314;-74
2020/12/09 13:18:31;;;;;;;39.80;24.02;;;4.80;99.90;;;;;;5065491;28;20227;-75
2020/12/09 13:21:17;;;;;;;38.25;24.35;;;4.70;99.90;;;;;;5066379;28;20196;-75
2020/12/09 13:24:02;;;;;;;41.05;25.58;;;4.60;99.90;;;;;;5058612;28;20588;-75
2020/12/09 13:26:48;;;;;;;38.05;24.05;;;4.60;99.90;;;;;;5058673;28;20204;-74
2020/12/09 13:29:33;;;;;;;37.05;21.98;;;4.70;99.90;;;;;;5055372;28;20706;-75
2020/12/09 13:32:19;;;;;;;37.92;22.08;;;4.70;99.90;;;;;;5063839;28;20207;-75
2020/12/09 13:35:04;;;;;;;43.67;23.05;;;4.80;99.90;;;;;;5060055;28;20197;-75
2020/12/09 13:37:49;;;;;;;34.45;22.75;;;4.80;99.90;;;;;;5061538;28;20232;-74
2020/12/09 13:40:35;;;;;;;55.67;35.00;;;4.90;99.90;;;;;;5057238;28;20201;-74
2020/12/09 13:43:21;;;;;;;36.05;22.77;;;4.80;99.90;;;;;;5053454;28;20282;-75
2020/12/09 13:46:06;;;;;;;44.00;23.75;;;4.70;99.90;;;;;;5070936;28;20572;-74
2020/12/09 13:48:51;;;;;;;36.47;22.45;;;4.70;99.90;;;;;;5061514;28;20227;-75
2020/12/09 13:51:36;;;;;;;41.08;23.05;;;4.80;99.90;;;;;;5067114;28;20208;-75
2020/12/09 13:54:22;;;;;;;42.30;25.08;;;4.80;99.90;;;;;;5065144;28;20246;-75
2020/12/09 13:57:08;;;;;;;41.67;24.52;;;4.80;99.90;;;;;;5068343;28;20254;-75
2020/12/09 13:59:54;;;;;;;36.85;21.52;;;4.80;99.90;;;;;;5059020;28;20204;-75
2020/12/09 14:02:39;;;;;;;36.47;22.70;;;4.80;99.90;;;;;;5069332;28;20682;-75
2020/12/09 14:05:25;;;;;;;41.72;23.50;;;4.70;99.90;;;;;;5075659;28;20195;-75
2020/12/09 14:08:10;;;;;;;39.97;23.13;;;4.70;99.90;;;;;;5047894;28;20221;-75
2020/12/09 14:10:55;;;;;;;41.92;24.08;;;4.60;99.90;;;;;;5060230;28;20199;-75
2020/12/09 14:13:40;;;;;;;39.85;23.27;;;4.70;99.90;;;;;;5064129;28;20258;-75